sensor_id;sensor_type;location;lat;lon;timestamp;pressure;altitude;pressure_sealevel;temperature;humidity
74905;BME280;63465;50.862;6.220;2023-07-13T00:00:28;99879.53;;;16.62;97.19
74905;BME280;63465;50.862;6.220;2023-07-13T00:02:54;99878.16;;;16.56;98.11
74905;BME280;63465;50.862;6.220;2023-07-13T00:05:20;99879.97;;;16.43;99.71
74905;BME280;63465;50.862;6.220;2023-07-13T00:07:46;99894.34;;;16.42;100.00
74905;BME280;63465;50.862;6.220;2023-07-13T00:10:11;99884.47;;;16.43;100.00
74905;BME280;63465;50.862;6.220;2023-07-13T00:12:38;99885.53;;;16.40;100.00
74905;BME280;63465;50.862;6.220;2023-07-13T00:15:07;99892.50;;;16.43;100.00
74905;BME280;63465;50.862;6.220;2023-07-13T00:17:34;99897.34;;;16.37;100.00
74905;BME280;63465;50.862;6.220;2023-07-13T00:20:00;99901.41;;;16.30;100.00
74905;BME280;63465;50.862;6.220;2023-07-13T00:22:25;99903.13;;;16.31;100.00
74905;BME280;63465;50.862;6.220;2023-07-13T00:24:54;99892.84;;;16.38;100.00
74905;BME280;63465;50.862;6.220;2023-07-13T00:27:22;99880.00;;;16.30;100.00
74905;BME280;63465;50.862;6.220;2023-07-13T00:39:53;99891.03;;;16.26;100.00
74905;BME280;63465;50.862;6.220;2023-07-13T00:42:18;99895.22;;;16.30;100.00
74905;BME280;63465;50.862;6.220;2023-07-13T00:47:36;99889.63;;;16.20;100.00
74905;BME280;63465;50.862;6.220;2023-07-13T00:50:03;99894.44;;;16.15;100.00
74905;BME280;63465;50.862;6.220;2023-07-13T00:52:31;99898.28;;;16.11;100.00
74905;BME280;63465;50.862;6.220;2023-07-13T00:54:57;99889.84;;;16.04;100.00
74905;BME280;63465;50.862;6.220;2023-07-13T00:57:23;99884.91;;;16.11;100.00
74905;BME280;63465;50.862;6.220;2023-07-13T00:59:52;99883.31;;;15.68;100.00
74905;BME280;63465;50.862;6.220;2023-07-13T01:02:19;99888.53;;;15.69;100.00
74905;BME280;63465;50.862;6.220;2023-07-13T01:04:47;99893.13;;;15.27;100.00
74905;BME280;63465;50.862;6.220;2023-07-13T01:07:12;99890.13;;;15.05;100.00
74905;BME280;63465;50.862;6.220;2023-07-13T01:09:37;99904.00;;;14.97;100.00
74905;BME280;63465;50.862;6.220;2023-07-13T01:12:03;99893.25;;;14.84;100.00
74905;BME280;63465;50.862;6.220;2023-07-13T01:14:29;99892.19;;;14.72;100.00
74905;BME280;63465;50.862;6.220;2023-07-13T01:16:54;99889.78;;;14.82;100.00
74905;BME280;63465;50.862;6.220;2023-07-13T01:19:35;99888.09;;;14.81;100.00
74905;BME280;63465;50.862;6.220;2023-07-13T01:22:06;99890.38;;;14.87;100.00
74905;BME280;63465;50.862;6.220;2023-07-13T01:24:37;99877.38;;;14.95;100.00
74905;BME280;63465;50.862;6.220;2023-07-13T01:27:03;99873.84;;;14.80;100.00
74905;BME280;63465;50.862;6.220;2023-07-13T01:29:30;99882.75;;;14.81;100.00
74905;BME280;63465;50.862;6.220;2023-07-13T01:31:56;99876.78;;;15.05;100.00
74905;BME280;63465;50.862;6.220;2023-07-13T01:34:21;99882.81;;;14.94;100.00
74905;BME280;63465;50.862;6.220;2023-07-13T01:36:47;99881.00;;;14.94;100.00
74905;BME280;63465;50.862;6.220;2023-07-13T01:39:12;99886.34;;;14.94;100.00
74905;BME280;63465;50.862;6.220;2023-07-13T01:41:37;99883.22;;;14.88;100.00
74905;BME280;63465;50.862;6.220;2023-07-13T01:44:03;99881.97;;;14.79;100.00
74905;BME280;63465;50.862;6.220;2023-07-13T01:46:28;99889.25;;;14.77;100.00
74905;BME280;63465;50.862;6.220;2023-07-13T01:48:53;99882.75;;;14.67;100.00
74905;BME280;63465;50.862;6.220;2023-07-13T01:51:19;99890.19;;;14.76;100.00
74905;BME280;63465;50.862;6.220;2023-07-13T01:53:45;99878.25;;;14.82;100.00
74905;BME280;63465;50.862;6.220;2023-07-13T01:56:11;99883.78;;;14.78;100.00
74905;BME280;63465;50.862;6.220;2023-07-13T01:58:36;99885.53;;;14.79;100.00
74905;BME280;63465;50.862;6.220;2023-07-13T02:01:01;99883.69;;;14.80;100.00
74905;BME280;63465;50.862;6.220;2023-07-13T02:03:27;99881.63;;;14.71;100.00
74905;BME280;63465;50.862;6.220;2023-07-13T02:05:52;99881.78;;;14.53;100.00
74905;BME280;63465;50.862;6.220;2023-07-13T02:08:17;99881.06;;;14.66;100.00
74905;BME280;63465;50.862;6.220;2023-07-13T02:10:43;99892.94;;;14.60;100.00
74905;BME280;63465;50.862;6.220;2023-07-13T02:13:08;99895.53;;;14.61;100.00
74905;BME280;63465;50.862;6.220;2023-07-13T02:15:33;99896.50;;;14.60;100.00
74905;BME280;63465;50.862;6.220;2023-07-13T02:17:58;99901.06;;;14.58;100.00
74905;BME280;63465;50.862;6.220;2023-07-13T02:20:25;99902.88;;;14.58;100.00
74905;BME280;63465;50.862;6.220;2023-07-13T02:22:51;99902.53;;;14.64;100.00
74905;BME280;63465;50.862;6.220;2023-07-13T02:25:17;99889.06;;;14.66;100.00
74905;BME280;63465;50.862;6.220;2023-07-13T02:27:42;99900.78;;;14.63;100.00
74905;BME280;63465;50.862;6.220;2023-07-13T02:30:11;99899.06;;;14.48;100.00
74905;BME280;63465;50.862;6.220;2023-07-13T02:32:37;99902.00;;;14.57;100.00
74905;BME280;63465;50.862;6.220;2023-07-13T02:35:02;99895.34;;;14.50;100.00
74905;BME280;63465;50.862;6.220;2023-07-13T02:37:28;99901.25;;;14.55;100.00
74905;BME280;63465;50.862;6.220;2023-07-13T02:39:55;99909.91;;;14.59;100.00
74905;BME280;63465;50.862;6.220;2023-07-13T02:42:23;99912.13;;;14.67;100.00
74905;BME280;63465;50.862;6.220;2023-07-13T02:44:48;99912.66;;;14.57;100.00
74905;BME280;63465;50.862;6.220;2023-07-13T02:47:14;99903.72;;;14.58;100.00
74905;BME280;63465;50.862;6.220;2023-07-13T02:49:40;99914.88;;;14.51;100.00
74905;BME280;63465;50.862;6.220;2023-07-13T02:52:05;99909.16;;;14.57;100.00
74905;BME280;63465;50.862;6.220;2023-07-13T02:54:31;99911.38;;;14.50;100.00
74905;BME280;63465;50.862;6.220;2023-07-13T02:56:57;99916.69;;;14.50;100.00
74905;BME280;63465;50.862;6.220;2023-07-13T02:59:22;99915.78;;;14.66;100.00
74905;BME280;63465;50.862;6.220;2023-07-13T03:01:47;99912.63;;;14.73;100.00
74905;BME280;63465;50.862;6.220;2023-07-13T03:04:13;99914.59;;;14.70;100.00
74905;BME280;63465;50.862;6.220;2023-07-13T03:06:38;99909.47;;;14.81;100.00
74905;BME280;63465;50.862;6.220;2023-07-13T03:09:04;99911.25;;;14.95;100.00
74905;BME280;63465;50.862;6.220;2023-07-13T03:11:29;99906.31;;;14.89;100.00
74905;BME280;63465;50.862;6.220;2023-07-13T03:13:55;99914.59;;;14.98;100.00
74905;BME280;63465;50.862;6.220;2023-07-13T03:16:20;99916.31;;;14.85;100.00
74905;BME280;63465;50.862;6.220;2023-07-13T03:18:47;99917.09;;;14.87;100.00
74905;BME280;63465;50.862;6.220;2023-07-13T03:21:13;99920.25;;;14.79;100.00
74905;BME280;63465;50.862;6.220;2023-07-13T03:23:39;99922.13;;;14.92;100.00
74905;BME280;63465;50.862;6.220;2023-07-13T03:26:07;99925.97;;;14.88;100.00
74905;BME280;63465;50.862;6.220;2023-07-13T03:28:33;99919.38;;;14.93;100.00
74905;BME280;63465;50.862;6.220;2023-07-13T03:31:03;99920.16;;;14.81;100.00
74905;BME280;63465;50.862;6.220;2023-07-13T03:33:29;99927.19;;;14.82;100.00
74905;BME280;63465;50.862;6.220;2023-07-13T03:35:54;99931.41;;;14.86;100.00
74905;BME280;63465;50.862;6.220;2023-07-13T03:38:19;99931.19;;;14.89;100.00
74905;BME280;63465;50.862;6.220;2023-07-13T03:40:45;99933.38;;;14.97;100.00
74905;BME280;63465;50.862;6.220;2023-07-13T03:43:10;99929.88;;;14.96;100.00
74905;BME280;63465;50.862;6.220;2023-07-13T03:45:37;99939.13;;;14.91;100.00
74905;BME280;63465;50.862;6.220;2023-07-13T03:48:03;99946.47;;;14.87;100.00
74905;BME280;63465;50.862;6.220;2023-07-13T03:50:29;99938.06;;;14.93;100.00
74905;BME280;63465;50.862;6.220;2023-07-13T03:52:54;99944.16;;;14.95;100.00
74905;BME280;63465;50.862;6.220;2023-07-13T03:55:21;99944.81;;;14.99;100.00
74905;BME280;63465;50.862;6.220;2023-07-13T03:57:46;99945.13;;;14.94;100.00
74905;BME280;63465;50.862;6.220;2023-07-13T04:00:13;99944.81;;;14.99;100.00
74905;BME280;63465;50.862;6.220;2023-07-13T04:02:38;99942.25;;;14.97;100.00
74905;BME280;63465;50.862;6.220;2023-07-13T04:05:04;99941.66;;;15.07;100.00
74905;BME280;63465;50.862;6.220;2023-07-13T04:07:29;99949.31;;;14.98;100.00
74905;BME280;63465;50.862;6.220;2023-07-13T04:09:54;99952.84;;;14.99;100.00
74905;BME280;63465;50.862;6.220;2023-07-13T04:12:20;99958.00;;;15.02;100.00
74905;BME280;63465;50.862;6.220;2023-07-13T04:14:45;99957.16;;;15.02;100.00
74905;BME280;63465;50.862;6.220;2023-07-13T04:17:11;99958.97;;;15.01;100.00
74905;BME280;63465;50.862;6.220;2023-07-13T04:19:36;99954.72;;;15.11;100.00
74905;BME280;63465;50.862;6.220;2023-07-13T04:22:01;99956.34;;;15.14;100.00
74905;BME280;63465;50.862;6.220;2023-07-13T04:24:27;99958.84;;;15.17;100.00
74905;BME280;63465;50.862;6.220;2023-07-13T04:26:52;99966.66;;;15.20;100.00
74905;BME280;63465;50.862;6.220;2023-07-13T04:29:17;99971.91;;;15.22;100.00
74905;BME280;63465;50.862;6.220;2023-07-13T04:31:42;99969.72;;;15.14;100.00
74905;BME280;63465;50.862;6.220;2023-07-13T04:34:08;99976.78;;;15.15;100.00
74905;BME280;63465;50.862;6.220;2023-07-13T04:36:33;99971.06;;;15.21;100.00
74905;BME280;63465;50.862;6.220;2023-07-13T04:39:01;99976.09;;;15.26;100.00
74905;BME280;63465;50.862;6.220;2023-07-13T04:41:26;99964.38;;;15.28;100.00
74905;BME280;63465;50.862;6.220;2023-07-13T04:43:53;99970.66;;;15.27;100.00
74905;BME280;63465;50.862;6.220;2023-07-13T04:46:18;99965.97;;;15.31;100.00
74905;BME280;63465;50.862;6.220;2023-07-13T04:48:44;99972.84;;;15.35;100.00
74905;BME280;63465;50.862;6.220;2023-07-13T04:51:09;99969.88;;;15.40;100.00
74905;BME280;63465;50.862;6.220;2023-07-13T04:53:35;99971.66;;;15.54;100.00
74905;BME280;63465;50.862;6.220;2023-07-13T04:56:01;99971.66;;;15.54;100.00
74905;BME280;63465;50.862;6.220;2023-07-13T04:58:27;99967.91;;;15.56;100.00
74905;BME280;63465;50.862;6.220;2023-07-13T05:00:53;99978.84;;;15.66;100.00
74905;BME280;63465;50.862;6.220;2023-07-13T05:03:18;99972.25;;;15.72;100.00
74905;BME280;63465;50.862;6.220;2023-07-13T05:05:54;99973.69;;;15.77;100.00
74905;BME280;63465;50.862;6.220;2023-07-13T05:08:20;99979.81;;;15.79;100.00
74905;BME280;63465;50.862;6.220;2023-07-13T05:10:46;99976.66;;;16.00;100.00
74905;BME280;63465;50.862;6.220;2023-07-13T05:13:11;99976.44;;;15.76;100.00
74905;BME280;63465;50.862;6.220;2023-07-13T05:15:36;99986.41;;;16.14;100.00
74905;BME280;63465;50.862;6.220;2023-07-13T05:18:01;99981.66;;;15.92;100.00
74905;BME280;63465;50.862;6.220;2023-07-13T05:20:27;99975.06;;;16.10;100.00
74905;BME280;63465;50.862;6.220;2023-07-13T05:22:52;99978.38;;;16.14;100.00
74905;BME280;63465;50.862;6.220;2023-07-13T05:25:17;99985.13;;;16.07;100.00
74905;BME280;63465;50.862;6.220;2023-07-13T05:27:43;99985.69;;;16.12;100.00
74905;BME280;63465;50.862;6.220;2023-07-13T05:30:11;99989.34;;;16.36;100.00
74905;BME280;63465;50.862;6.220;2023-07-13T05:32:37;99990.50;;;16.19;100.00
74905;BME280;63465;50.862;6.220;2023-07-13T05:35:02;99998.72;;;16.03;100.00
74905;BME280;63465;50.862;6.220;2023-07-13T05:37:28;99997.91;;;16.16;100.00
74905;BME280;63465;50.862;6.220;2023-07-13T05:39:53;100004.19;;;16.02;100.00
74905;BME280;63465;50.862;6.220;2023-07-13T05:42:18;100005.97;;;16.01;100.00
74905;BME280;63465;50.862;6.220;2023-07-13T05:44:46;100002.69;;;16.11;100.00
74905;BME280;63465;50.862;6.220;2023-07-13T05:47:11;100013.88;;;16.30;100.00
74905;BME280;63465;50.862;6.220;2023-07-13T05:49:39;100009.84;;;16.50;100.00
74905;BME280;63465;50.862;6.220;2023-07-13T05:52:05;100010.56;;;16.39;100.00
74905;BME280;63465;50.862;6.220;2023-07-13T05:54:30;100015.50;;;16.46;100.00
74905;BME280;63465;50.862;6.220;2023-07-13T05:56:55;100018.59;;;16.27;100.00
74905;BME280;63465;50.862;6.220;2023-07-13T05:59:21;100018.75;;;16.11;100.00
74905;BME280;63465;50.862;6.220;2023-07-13T06:01:46;100016.56;;;16.30;100.00
74905;BME280;63465;50.862;6.220;2023-07-13T06:04:11;100019.53;;;16.26;100.00
74905;BME280;63465;50.862;6.220;2023-07-13T06:06:37;100019.13;;;16.45;100.00
74905;BME280;63465;50.862;6.220;2023-07-13T06:09:02;100018.06;;;16.34;100.00
74905;BME280;63465;50.862;6.220;2023-07-13T06:11:27;100022.31;;;16.24;100.00
74905;BME280;63465;50.862;6.220;2023-07-13T06:13:55;100022.72;;;16.71;100.00
74905;BME280;63465;50.862;6.220;2023-07-13T06:16:20;100018.28;;;16.31;100.00
74905;BME280;63465;50.862;6.220;2023-07-13T06:18:46;100034.28;;;16.58;100.00
74905;BME280;63465;50.862;6.220;2023-07-13T06:21:14;100041.28;;;16.87;100.00
74905;BME280;63465;50.862;6.220;2023-07-13T06:23:40;100043.19;;;16.46;100.00
74905;BME280;63465;50.862;6.220;2023-07-13T06:26:06;100032.84;;;16.40;100.00
74905;BME280;63465;50.862;6.220;2023-07-13T06:28:34;100044.69;;;16.23;100.00
74905;BME280;63465;50.862;6.220;2023-07-13T06:31:00;100045.47;;;16.25;100.00
74905;BME280;63465;50.862;6.220;2023-07-13T06:33:26;100059.28;;;16.19;100.00
74905;BME280;63465;50.862;6.220;2023-07-13T06:35:51;100047.84;;;16.30;100.00
74905;BME280;63465;50.862;6.220;2023-07-13T06:38:17;100058.25;;;16.34;100.00
74905;BME280;63465;50.862;6.220;2023-07-13T06:40:42;100055.78;;;16.44;100.00
74905;BME280;63465;50.862;6.220;2023-07-13T06:43:08;100056.53;;;16.33;100.00
74905;BME280;63465;50.862;6.220;2023-07-13T06:45:41;100059.72;;;16.38;100.00
74905;BME280;63465;50.862;6.220;2023-07-13T06:48:07;100063.81;;;16.44;100.00
74905;BME280;63465;50.862;6.220;2023-07-13T06:50:33;100067.72;;;16.53;100.00
74905;BME280;63465;50.862;6.220;2023-07-13T06:52:58;100068.84;;;16.89;100.00
74905;BME280;63465;50.862;6.220;2023-07-13T06:55:24;100068.13;;;16.47;100.00
74905;BME280;63465;50.862;6.220;2023-07-13T06:57:50;100060.19;;;16.45;100.00
74905;BME280;63465;50.862;6.220;2023-07-13T07:00:15;100086.38;;;16.67;100.00
74905;BME280;63465;50.862;6.220;2023-07-13T07:02:41;100078.50;;;16.91;100.00
74905;BME280;63465;50.862;6.220;2023-07-13T07:05:06;100078.22;;;16.69;100.00
74905;BME280;63465;50.862;6.220;2023-07-13T07:07:31;100087.03;;;16.84;100.00
74905;BME280;63465;50.862;6.220;2023-07-13T07:09:57;100079.00;;;16.84;100.00
74905;BME280;63465;50.862;6.220;2023-07-13T07:12:22;100077.00;;;17.00;100.00
74905;BME280;63465;50.862;6.220;2023-07-13T07:14:47;100079.91;;;17.23;100.00
74905;BME280;63465;50.862;6.220;2023-07-13T07:17:12;100077.97;;;17.25;100.00
74905;BME280;63465;50.862;6.220;2023-07-13T07:19:38;100078.84;;;17.13;100.00
74905;BME280;63465;50.862;6.220;2023-07-13T07:22:03;100086.84;;;17.25;100.00
74905;BME280;63465;50.862;6.220;2023-07-13T07:24:29;100078.03;;;17.36;100.00
74905;BME280;63465;50.862;6.220;2023-07-13T07:26:54;100072.34;;;17.54;100.00
74905;BME280;63465;50.862;6.220;2023-07-13T07:29:19;100077.03;;;17.63;100.00
74905;BME280;63465;50.862;6.220;2023-07-13T07:31:45;100074.47;;;17.61;100.00
74905;BME280;63465;50.862;6.220;2023-07-13T07:34:11;100073.66;;;17.35;100.00
74905;BME280;63465;50.862;6.220;2023-07-13T07:36:36;100075.97;;;17.53;100.00
74905;BME280;63465;50.862;6.220;2023-07-13T07:39:01;100078.72;;;17.64;100.00
74905;BME280;63465;50.862;6.220;2023-07-13T07:41:26;100088.09;;;17.58;100.00
74905;BME280;63465;50.862;6.220;2023-07-13T07:43:52;100075.19;;;17.63;100.00
74905;BME280;63465;50.862;6.220;2023-07-13T07:46:17;100083.63;;;18.20;100.00
74905;BME280;63465;50.862;6.220;2023-07-13T07:48:42;100091.81;;;17.69;100.00
74905;BME280;63465;50.862;6.220;2023-07-13T07:51:09;100078.63;;;17.65;100.00
74905;BME280;63465;50.862;6.220;2023-07-13T07:53:34;100081.28;;;18.15;100.00
74905;BME280;63465;50.862;6.220;2023-07-13T07:56:00;100086.09;;;17.86;100.00
74905;BME280;63465;50.862;6.220;2023-07-13T07:58:25;100091.25;;;17.76;100.00
74905;BME280;63465;50.862;6.220;2023-07-13T08:00:50;100088.00;;;17.60;100.00
74905;BME280;63465;50.862;6.220;2023-07-13T08:03:16;100091.63;;;17.59;100.00
74905;BME280;63465;50.862;6.220;2023-07-13T08:05:41;100091.56;;;17.97;100.00
74905;BME280;63465;50.862;6.220;2023-07-13T08:08:06;100084.16;;;17.88;100.00
74905;BME280;63465;50.862;6.220;2023-07-13T08:10:35;100089.13;;;17.81;100.00
74905;BME280;63465;50.862;6.220;2023-07-13T08:13:00;100088.03;;;18.21;100.00
74905;BME280;63465;50.862;6.220;2023-07-13T08:15:25;100087.22;;;18.32;100.00
74905;BME280;63465;50.862;6.220;2023-07-13T08:17:51;100077.88;;;18.49;100.00
74905;BME280;63465;50.862;6.220;2023-07-13T08:20:16;100085.97;;;18.00;100.00
74905;BME280;63465;50.862;6.220;2023-07-13T08:22:41;100071.69;;;18.00;100.00
74905;BME280;63465;50.862;6.220;2023-07-13T08:25:07;100077.69;;;18.28;100.00
74905;BME280;63465;50.862;6.220;2023-07-13T08:27:33;100086.66;;;18.15;100.00
74905;BME280;63465;50.862;6.220;2023-07-13T08:29:58;100086.53;;;18.17;100.00
74905;BME280;63465;50.862;6.220;2023-07-13T08:32:24;100074.81;;;18.78;100.00
74905;BME280;63465;50.862;6.220;2023-07-13T08:34:50;100074.25;;;18.50;100.00
74905;BME280;63465;50.862;6.220;2023-07-13T08:37:16;100079.53;;;18.74;100.00
74905;BME280;63465;50.862;6.220;2023-07-13T08:39:42;100073.28;;;19.54;100.00
74905;BME280;63465;50.862;6.220;2023-07-13T08:42:45;100083.91;;;19.11;100.00
74905;BME280;63465;50.862;6.220;2023-07-13T08:45:30;100069.53;;;18.76;100.00
74905;BME280;63465;50.862;6.220;2023-07-13T08:48:22;100073.66;;;19.27;100.00
74905;BME280;63465;50.862;6.220;2023-07-13T08:50:54;100070.28;;;20.03;99.26
74905;BME280;63465;50.862;6.220;2023-07-13T08:53:23;100071.03;;;19.93;100.00
74905;BME280;63465;50.862;6.220;2023-07-13T08:55:57;100069.94;;;20.28;100.00
74905;BME280;63465;50.862;6.220;2023-07-13T08:58:24;100066.28;;;19.97;95.58
74905;BME280;63465;50.862;6.220;2023-07-13T09:03:59;100059.56;;;21.29;93.04
74905;BME280;63465;50.862;6.220;2023-07-13T09:06:36;100053.50;;;21.47;89.15
74905;BME280;63465;50.862;6.220;2023-07-13T09:12:14;100057.69;;;20.57;92.29
74905;BME280;63465;50.862;6.220;2023-07-13T09:14:43;100057.78;;;21.09;88.70
74905;BME280;63465;50.862;6.220;2023-07-13T09:17:18;100052.03;;;20.39;91.47
74905;BME280;63465;50.862;6.220;2023-07-13T09:19:48;100050.91;;;21.05;88.35
74905;BME280;63465;50.862;6.220;2023-07-13T09:22:17;100058.38;;;20.91;88.86
74905;BME280;63465;50.862;6.220;2023-07-13T09:24:52;100048.91;;;20.76;87.57
74905;BME280;63465;50.862;6.220;2023-07-13T09:27:27;100043.25;;;21.10;87.24
74905;BME280;63465;50.862;6.220;2023-07-13T09:30:02;100047.84;;;22.10;81.93
74905;BME280;63465;50.862;6.220;2023-07-13T09:32:31;100046.13;;;21.49;83.47
74905;BME280;63465;50.862;6.220;2023-07-13T09:34:57;100050.53;;;20.13;90.00
74905;BME280;63465;50.862;6.220;2023-07-13T09:37:28;100054.88;;;20.58;88.66
74905;BME280;63465;50.862;6.220;2023-07-13T09:39:56;100052.09;;;21.12;87.92
74905;BME280;63465;50.862;6.220;2023-07-13T09:42:25;100050.13;;;20.93;86.93
74905;BME280;63465;50.862;6.220;2023-07-13T09:44:54;100056.47;;;21.44;84.22
74905;BME280;63465;50.862;6.220;2023-07-13T09:50:00;100056.69;;;20.58;88.11
74905;BME280;63465;50.862;6.220;2023-07-13T09:52:26;100057.63;;;21.41;84.43
74905;BME280;63465;50.862;6.220;2023-07-13T09:54:53;100068.31;;;21.22;85.18
74905;BME280;63465;50.862;6.220;2023-07-13T09:57:25;100070.16;;;20.58;87.45
74905;BME280;63465;50.862;6.220;2023-07-13T09:59:52;100058.28;;;20.60;88.10
74905;BME280;63465;50.862;6.220;2023-07-13T10:02:34;100065.09;;;20.76;90.19
74905;BME280;63465;50.862;6.220;2023-07-13T10:05:04;100072.13;;;21.81;85.01
74905;BME280;63465;50.862;6.220;2023-07-13T10:07:31;100071.66;;;21.76;81.52
74905;BME280;63465;50.862;6.220;2023-07-13T10:10:00;100074.56;;;21.22;84.60
74905;BME280;63465;50.862;6.220;2023-07-13T10:12:27;100077.28;;;21.01;85.31
74905;BME280;63465;50.862;6.220;2023-07-13T10:14:55;100076.41;;;22.13;79.39
74905;BME280;63465;50.862;6.220;2023-07-13T10:17:28;100077.13;;;22.05;79.85
74905;BME280;63465;50.862;6.220;2023-07-13T10:19:58;100080.38;;;21.79;80.05
74905;BME280;63465;50.862;6.220;2023-07-13T10:22:33;100071.41;;;21.07;83.51
74905;BME280;63465;50.862;6.220;2023-07-13T10:25:01;100080.03;;;21.32;81.42
74905;BME280;63465;50.862;6.220;2023-07-13T10:27:34;100092.94;;;21.59;80.93
74905;BME280;63465;50.862;6.220;2023-07-13T10:30:09;100095.97;;;21.35;80.01
74905;BME280;63465;50.862;6.220;2023-07-13T10:32:36;100089.47;;;21.47;78.78
74905;BME280;63465;50.862;6.220;2023-07-13T10:35:02;100085.31;;;21.64;78.80
74905;BME280;63465;50.862;6.220;2023-07-13T10:37:33;100089.59;;;21.77;78.25
74905;BME280;63465;50.862;6.220;2023-07-13T10:40:03;100108.44;;;21.36;80.99
74905;BME280;63465;50.862;6.220;2023-07-13T10:42:35;100097.44;;;20.76;86.81
74905;BME280;63465;50.862;6.220;2023-07-13T10:45:08;100097.91;;;21.54;80.43
74905;BME280;63465;50.862;6.220;2023-07-13T10:47:37;100097.22;;;21.31;80.14
74905;BME280;63465;50.862;6.220;2023-07-13T10:50:05;100101.56;;;21.22;81.27
74905;BME280;63465;50.862;6.220;2023-07-13T10:52:48;100105.19;;;21.63;79.06
74905;BME280;63465;50.862;6.220;2023-07-13T10:55:37;100097.25;;;21.71;78.75
74905;BME280;63465;50.862;6.220;2023-07-13T10:58:12;100085.88;;;21.06;80.87
74905;BME280;63465;50.862;6.220;2023-07-13T11:00:56;100117.56;;;20.93;81.36
74905;BME280;63465;50.862;6.220;2023-07-13T11:03:23;100101.19;;;21.06;81.11
74905;BME280;63465;50.862;6.220;2023-07-13T11:05:50;100104.34;;;21.11;79.42
74905;BME280;63465;50.862;6.220;2023-07-13T11:08:35;100098.81;;;20.70;83.39
74905;BME280;63465;50.862;6.220;2023-07-13T11:18:51;100094.94;;;21.36;76.91
74905;BME280;63465;50.862;6.220;2023-07-13T11:21:23;100106.34;;;21.09;82.05
74905;BME280;63465;50.862;6.220;2023-07-13T11:23:53;100102.19;;;21.35;80.50
74905;BME280;63465;50.862;6.220;2023-07-13T11:31:40;100104.13;;;21.02;81.18
74905;BME280;63465;50.862;6.220;2023-07-13T11:34:13;100102.97;;;21.47;79.90
74905;BME280;63465;50.862;6.220;2023-07-13T11:36:43;100109.50;;;20.93;80.40
74905;BME280;63465;50.862;6.220;2023-07-13T11:39:28;100108.09;;;21.19;79.55
74905;BME280;63465;50.862;6.220;2023-07-13T11:41:57;100096.69;;;21.16;81.03
74905;BME280;63465;50.862;6.220;2023-07-13T11:44:27;100109.84;;;21.30;79.07
74905;BME280;63465;50.862;6.220;2023-07-13T11:46:59;100096.06;;;22.15;75.25
74905;BME280;63465;50.862;6.220;2023-07-13T11:49:31;100093.41;;;22.54;71.39
74905;BME280;63465;50.862;6.220;2023-07-13T11:51:58;100097.06;;;23.11;70.84
74905;BME280;63465;50.862;6.220;2023-07-13T11:54:33;100092.56;;;22.73;72.00
74905;BME280;63465;50.862;6.220;2023-07-13T11:57:10;100060.88;;;21.45;75.94
74905;BME280;63465;50.862;6.220;2023-07-13T11:59:39;100096.69;;;22.48;73.28
74905;BME280;63465;50.862;6.220;2023-07-13T12:02:15;100084.53;;;22.91;70.53
74905;BME280;63465;50.862;6.220;2023-07-13T12:04:42;100088.25;;;22.90;66.89
74905;BME280;63465;50.862;6.220;2023-07-13T12:07:15;100095.53;;;22.79;68.90
74905;BME280;63465;50.862;6.220;2023-07-13T12:09:40;100092.25;;;22.86;66.60
74905;BME280;63465;50.862;6.220;2023-07-13T12:12:28;100103.25;;;22.55;68.15
74905;BME280;63465;50.862;6.220;2023-07-13T12:14:54;100098.41;;;22.68;66.00
74905;BME280;63465;50.862;6.220;2023-07-13T12:17:22;100093.13;;;22.57;65.68
74905;BME280;63465;50.862;6.220;2023-07-13T12:19:50;100090.00;;;22.52;67.40
74905;BME280;63465;50.862;6.220;2023-07-13T12:22:18;100091.28;;;23.34;65.45
74905;BME280;63465;50.862;6.220;2023-07-13T12:24:45;100089.13;;;22.80;65.22
74905;BME280;63465;50.862;6.220;2023-07-13T12:27:19;100092.13;;;23.35;64.53
74905;BME280;63465;50.862;6.220;2023-07-13T12:32:42;100091.50;;;23.50;63.38
74905;BME280;63465;50.862;6.220;2023-07-13T12:35:15;100095.78;;;23.53;61.21
74905;BME280;63465;50.862;6.220;2023-07-13T12:37:45;100084.47;;;23.95;59.24
74905;BME280;63465;50.862;6.220;2023-07-13T12:40:19;100081.91;;;23.28;58.34
74905;BME280;63465;50.862;6.220;2023-07-13T12:42:47;100098.34;;;22.97;60.48
74905;BME280;63465;50.862;6.220;2023-07-13T12:45:25;100095.22;;;23.77;58.89
74905;BME280;63465;50.862;6.220;2023-07-13T12:48:37;100092.47;;;23.22;57.62
74905;BME280;63465;50.862;6.220;2023-07-13T12:50:53;100090.34;;;23.91;58.38
74905;BME280;63465;50.862;6.220;2023-07-13T12:53:22;100082.13;;;22.78;61.35
74905;BME280;63465;50.862;6.220;2023-07-13T12:55:54;100097.47;;;23.54;60.48
74905;BME280;63465;50.862;6.220;2023-07-13T12:58:32;100097.94;;;22.63;65.80
74905;BME280;63465;50.862;6.220;2023-07-13T13:00:59;100093.56;;;22.62;65.52
74905;BME280;63465;50.862;6.220;2023-07-13T13:06:03;100095.41;;;22.52;64.29
74905;BME280;63465;50.862;6.220;2023-07-13T13:08:31;100100.63;;;23.12;62.63
74905;BME280;63465;50.862;6.220;2023-07-13T13:10:56;100092.94;;;22.88;64.68
74905;BME280;63465;50.862;6.220;2023-07-13T13:13:21;100094.84;;;22.38;64.62
74905;BME280;63465;50.862;6.220;2023-07-13T13:15:47;100092.25;;;23.43;63.96
74905;BME280;63465;50.862;6.220;2023-07-13T13:18:23;100090.97;;;22.31;65.34
74905;BME280;63465;50.862;6.220;2023-07-13T13:20:50;100093.84;;;22.59;64.76
74905;BME280;63465;50.862;6.220;2023-07-13T13:23:19;100090.41;;;22.76;64.21
74905;BME280;63465;50.862;6.220;2023-07-13T13:25:49;100087.75;;;23.24;62.12
74905;BME280;63465;50.862;6.220;2023-07-13T13:28:19;100085.25;;;22.93;63.63
74905;BME280;63465;50.862;6.220;2023-07-13T13:30:47;100092.72;;;23.28;63.54